Normangee, TX (77871)

4:45 AM CDT on April 23, 2017 (GMT -0500)
Bennett's Retreat; Madison Co, TX | | Change Station

Elev 374 ft 31.01 °N, 96.03 °W | Updated 4 seconds ago

Clear
Clear
52.9 °F
Feels Like 52.9 °F
N
0.0
Wind Variable Wind from SE
Gusts 0.0 mph

Today
High -- | Low -- °F
--% Chance of Precip.
Yesterday
High -- | Low -- °F
Precip. -- in
Pressure 30.13 in
Visibility 10.0 miles
Clouds Clear
Dew Point 52 °F
Humidity 97%
Rainfall 0.00 in
Snow Depth Not available.
6:47 AM 7:58 PM
Waning Crescent, 13% visible
METAR KCFD 230935Z AUTO 32004KT 10SM CLR 10/07 A3013 RMK AO2 T00950069
Pressure 30.13 in
Visibility 10.0 miles
Clouds Clear
Dew Point 52 °F
Humidity 97%
Rainfall 0.00 in
Snow Depth Not available.
6:47 AM 7:58 PM
Waning Crescent, 13% visible
METAR KCFD 230935Z AUTO 32004KT 10SM CLR 10/07 A3013 RMK AO2 T00950069

Get Severe Weather Alerts

Thanks for signing up!

Be on the lookout for a verification email in your inbox.

You'll start receiving the daily forecast at 8 AM.

×

10-Day Weather Forecast

Almanac

Astronomy

Apr. 23, 2017 Rise Set
Actual Time
Civil Twilight
Nautical Twilight
Astronomical Twilight
Moon
Length of Visible Light
Length of Day
Tomorrow will be .
, % of the Moon is Illuminated

Today's Extremes

State Highs State Lows

Community

WunderPhotos

WunderBlog® & News

Nearby

Air Quality

  Air Quality AQ Index Pollutant
Not available.

Snow Depth

Station Depth Elevation

Earthquake Activity

City Distance Mag. Time & Date
Minimum magnitude displayed is 2.5.

Coastal Water Temperatures

Place Temperature

Stations

Nearby Weather Stations

Station Location Temp. Windchill Dew Point Humidity Wind Precip. Elev Updated Type
                   

Watches & Warnings

There are currently no watches in effect.